Irma, WI

1:21 AM CDT on August 02, 2014 (GMT -0500)
Tomahawk Weather (KWITOMAH5) Elev 1505 ft | 45.39 °N, 89.76 °W | Change Station

Current weather conditions updated 7 seconds ago

Scattered Clouds
Scattered Clouds
53.3 °F
Feels Like 53.3 °F
N
0.0
Wind Variable Wind from NNE
Gusts 0.0 mph

Today is forecast to be nearly the same temperature as yesterday.

Today
High -- | Low -- °F
--% Chance of Precip.
Yesterday
High -- | Low -- °F
Precip. -- in
5:44 AM 8:25 PM
Waxing Crescent, 33% visible
Pressure 30.14 in
Visibility 4.0 miles
Clouds Scattered Clouds 7500 ft
Dew Point 53 °F
Humidity 98%
Rainfall 0.00 in
Snow Depth Not available.
UV 0 out of 12
Pollen 7.20 out of 12
Air Quality Not available.
Flu Activity Not available.
METAR KTKV 020615Z AUTO 00000KT 4SM BR SCT075 09/09 A3014 RMK AO2 T00940087

More Conditions Fewer Conditions

Pressure 30.14 in
Visibility 4.0 miles
Clouds Scattered Clouds 7500 ft
Dew Point 53 °F
Humidity 98%
Rainfall 0.00 in
Snow Depth Not available.
UV 0 out of 12
Pollen 7.20 out of 12
Air Quality Not available.
Flu Activity Not available.
METAR KTKV 020615Z AUTO 00000KT 4SM BR SCT075 09/09 A3014 RMK AO2 T00940087

More Conditions Fewer Conditions

10-Day Weather Forecast

Almanac

Astronomy

Aug. 02, 2014 Rise Set
Actual Time 5:44 AM CDT 8:25 PM CDT
Civil Twilight 5:10 AM CDT 8:59 PM CDT
Nautical Twilight 4:27 AM CDT 9:41 PM CDT
Astronomical Twilight 3:37 AM CDT 10:30 PM CDT
Moon 12:26 PM CDT 11:21 PM CDT
Length of Visible Light 15h 48m
Length of Day
14h 41m
Tomorrow will be 2m 30s shorter.
Waxing Crescent, 33% of the Moon is Illuminated
Today
Waxing Crescent
Aug 3
First Quarter
Aug 10
Full
Aug 17
Last Quarter
Aug 25
New

Today's Extremes

State Highs State Lows

Community

WunderPhotos

Upload Photos

1,739,830 photos uploaded!

Nearby

Snow Depth

Station Depth Elevation
No new snow has been reported.

Earthquake Activity

City Distance Mag. Time & Date
No recent earthquake activity has been reported nearby.
Minimum magnitude displayed is 2.5.

Coastal Water Temperatures

Place Temperature
No Stations Reporting

Nearby Weather Stations

Station Location Temp. Dew Point Humidity Wind Precip. Elev Updated Type
Tomahawk Weather, Tomahawk, WI 53.3 °F 53 °F 98% NNE  at  0.0 mph 0.00 in / hr 1505 ft 1:21 AM CDT Rapid Fire
Stefonek's Irma on Winkelman, Irma, WI 54.3 °F 54 °F 99% SSW  at  0.0 mph - / hr 1490 ft 1:09 AM CDT Normal
WIDOT Tomahawk - USH 8 @ USH 51, Heafford Junction, WI 54 °F 50 °F 86% ENE  at  1 mph 0.00 in / hr 1500 ft 12:18 AM CDT MADIS
GLEASON, WI 54.1 °F 54 °F 99% SSE  at  0.0 mph 0.00 in / hr 1605 ft 1:21 AM CDT Rapid Fire
RHINELANDER, WI 57.6 °F 55 °F 92% WSW  at  0.0 mph 0.00 in / hr 1640 ft 1:19 AM CDT Normal
Rhinelander, WI 54.9 °F 45 °F 70% North  at  0.0 mph - / hr 1575 ft 2:07 AM EDT Normal
Rhinelander CW5781, Rhinelander, WI 53.9 °F 52 °F 95% West  at  0.0 mph 0.00 in / hr 1520 ft 1:20 AM CDT Rapid Fire

Show More Stations Show Fewer Stations